Time;durP1;ratioP1;P1;durP2;ratioP2;P2;SDS_P1;SDS_P2;PMS_P1;PMS_P2;Temp;Humidity;BMP_temperature;BMP_pressure;BME280_temperature;BME280_humidity;BME280_pressure;Samples;Min_cycle;Max_cycle;Signal;HPM_P1;HPM_P2
2021/12/28 00:01:09;;;;;;;6.07;5.13;;;9.30;99.90;;;;;;2614216;47;20419;-80
2021/12/28 00:03:37;;;;;;;5.00;4.23;;;9.40;99.90;;;;;;2613700;54;20426;-77
2021/12/28 00:06:05;;;;;;;8.10;5.03;;;9.40;99.90;;;;;;2614309;54;20411;-79
2021/12/28 00:08:31;;;;;;;6.10;5.53;;;9.40;99.90;;;;;;2614286;39;20867;-79
2021/12/28 00:10:58;;;;;;;5.63;4.83;;;9.30;99.90;;;;;;2614103;54;20418;-79
2021/12/28 00:13:25;;;;;;;5.30;4.70;;;9.30;99.90;;;;;;2613599;54;20417;-80
2021/12/28 00:18:24;;;;;;;6.03;4.93;;;9.40;99.90;;;;;;2612443;47;20425;-79
2021/12/28 00:20:54;;;;;;;8.30;5.40;;;9.40;99.90;;;;;;2612772;39;21463;-80
2021/12/28 00:23:24;;;;;;;6.77;4.83;;;9.50;99.90;;;;;;2614546;54;21039;-78
2021/12/28 00:25:52;;;;;;;5.00;4.53;;;9.50;99.90;;;;;;2611923;39;20836;-79
2021/12/28 00:28:19;;;;;;;4.70;4.30;;;9.60;99.90;;;;;;2613693;54;20415;-78
2021/12/28 00:30:47;;;;;;;6.60;4.40;;;9.60;99.90;;;;;;2612233;54;22992;-78
2021/12/28 00:33:14;;;;;;;9.13;5.57;;;9.50;99.90;;;;;;2613708;54;20419;-78
2021/12/28 00:35:41;;;;;;;6.67;4.20;;;9.50;99.90;;;;;;2613561;54;20414;-76
2021/12/28 00:38:14;;;;;;;6.47;4.27;;;9.50;99.90;;;;;;2614004;54;20415;-78
2021/12/28 00:40:41;;;;;;;6.20;4.20;;;9.40;99.90;;;;;;2614540;54;20499;-80
2021/12/28 00:43:08;;;;;;;4.13;3.73;;;9.30;99.90;;;;;;2613720;31;20916;-78
2021/12/28 00:45:34;;;;;;;5.87;4.27;;;9.20;99.90;;;;;;2614470;54;20503;-77
2021/12/28 00:48:00;;;;;;;5.00;4.10;;;9.20;99.90;;;;;;2614558;54;20433;-78
2021/12/28 00:50:27;;;;;;;4.67;4.27;;;9.30;99.90;;;;;;2613756;54;20667;-77
2021/12/28 00:52:55;;;;;;;5.17;4.37;;;9.20;99.90;;;;;;2613826;54;20503;-78
2021/12/28 00:55:22;;;;;;;6.37;4.30;;;9.20;99.90;;;;;;2613206;54;20435;-79
2021/12/28 00:57:48;;;;;;;6.27;4.00;;;9.20;99.90;;;;;;2613812;54;20408;-77
2021/12/28 01:00:35;;;;;;;4.33;4.00;;;9.10;99.90;;;;;;2613714;47;20445;-79
2021/12/28 01:03:02;;;;;;;5.37;4.10;;;9.10;99.90;;;;;;2614841;54;20571;-79
2021/12/28 01:05:30;;;;;;;4.47;4.07;;;9.10;99.90;;;;;;2613482;39;20785;-79
2021/12/28 01:07:55;;;;;;;4.80;3.77;;;9.00;99.90;;;;;;2614370;54;20422;-78
2021/12/28 01:10:25;;;;;;;3.80;3.40;;;9.00;99.90;;;;;;2614231;54;20407;-79
2021/12/28 01:12:52;;;;;;;5.53;3.83;;;9.00;99.90;;;;;;2612937;54;20435;-77
2021/12/28 01:15:19;;;;;;;4.77;4.37;;;8.90;99.90;;;;;;2615140;54;20503;-77
2021/12/28 01:17:45;;;;;;;5.20;4.67;;;8.90;99.90;;;;;;2613972;54;20526;-77
2021/12/28 01:20:13;;;;;;;6.47;3.97;;;8.90;99.90;;;;;;2613934;54;20434;-79
2021/12/28 01:22:39;;;;;;;4.00;3.63;;;8.80;99.90;;;;;;2613851;51;20538;-76
2021/12/28 01:25:07;;;;;;;4.70;4.20;;;8.80;99.90;;;;;;2613500;54;20514;-78
2021/12/28 01:27:33;;;;;;;11.43;4.43;;;8.70;99.90;;;;;;2612383;51;20394;-79
2021/12/28 01:29:59;;;;;;;6.17;3.90;;;8.70;99.90;;;;;;2613716;47;20510;-77
2021/12/28 01:32:25;;;;;;;6.13;4.20;;;8.70;99.90;;;;;;2614086;54;20956;-78
2021/12/28 01:34:51;;;;;;;5.50;3.80;;;8.70;99.90;;;;;;2613758;54;20951;-78
2021/12/28 01:37:17;;;;;;;6.27;4.17;;;8.70;99.90;;;;;;2614118;54;20150;-79
2021/12/28 01:39:43;;;;;;;9.73;4.80;;;8.70;99.90;;;;;;2612890;54;20412;-80
2021/12/28 01:42:09;;;;;;;7.97;4.60;;;8.70;99.90;;;;;;2613581;47;20188;-79
2021/12/28 01:44:35;;;;;;;6.30;4.33;;;8.70;99.90;;;;;;2615305;46;20253;-78
2021/12/28 01:47:02;;;;;;;6.80;4.33;;;8.80;99.90;;;;;;2613397;54;20535;-79
2021/12/28 01:49:28;;;;;;;8.17;3.80;;;8.60;99.90;;;;;;2613606;54;20414;-80
2021/12/28 01:51:55;;;;;;;4.57;3.87;;;8.60;99.90;;;;;;2613413;54;20407;-79
2021/12/28 01:54:21;;;;;;;5.70;4.73;;;8.60;99.90;;;;;;2613816;54;20427;-79
2021/12/28 01:56:48;;;;;;;11.67;4.40;;;8.60;99.90;;;;;;2613624;54;20384;-79
2021/12/28 01:59:19;;;;;;;6.90;4.13;;;8.60;99.90;;;;;;2613839;54;21066;-80
2021/12/28 02:01:46;;;;;;;6.50;4.60;;;8.70;99.90;;;;;;2614555;39;20844;-80
2021/12/28 02:04:20;;;;;;;6.30;4.00;;;8.50;99.90;;;;;;2615171;39;20792;-79
2021/12/28 02:06:46;;;;;;;8.73;5.00;;;8.60;99.90;;;;;;2613507;47;20449;-78
2021/12/28 02:09:13;;;;;;;9.00;4.70;;;8.60;99.90;;;;;;2613816;54;20415;-78
2021/12/28 02:11:39;;;;;;;6.03;4.50;;;8.60;99.90;;;;;;2614517;54;20525;-78
2021/12/28 02:14:07;;;;;;;13.43;4.27;;;8.70;99.90;;;;;;2614521;39;20719;-78
2021/12/28 02:16:36;;;;;;;6.37;3.80;;;8.70;99.90;;;;;;2614072;39;20895;-78
2021/12/28 02:19:04;;;;;;;10.43;4.90;;;8.90;99.90;;;;;;2613988;54;20432;-78
2021/12/28 02:21:32;;;;;;;12.87;4.80;;;8.90;99.90;;;;;;2613427;54;20466;-79
2021/12/28 02:24:05;;;;;;;12.73;4.50;;;8.90;99.90;;;;;;2614288;54;20406;-79
2021/12/28 02:26:31;;;;;;;11.17;5.00;;;8.90;99.90;;;;;;2613634;47;20451;-78
2021/12/28 02:28:58;;;;;;;4.83;3.80;;;9.00;99.90;;;;;;2612853;54;20562;-79
2021/12/28 02:31:25;;;;;;;8.27;4.37;;;9.00;99.90;;;;;;2614043;54;20418;-77
2021/12/28 02:33:51;;;;;;;10.63;4.97;;;9.10;99.90;;;;;;2614496;54;20403;-79
2021/12/28 02:36:18;;;;;;;3.63;3.20;;;9.00;99.90;;;;;;2614378;54;20423;-79
2021/12/28 02:38:45;;;;;;;15.37;3.53;;;9.00;99.90;;;;;;2613582;47;20395;-78
2021/12/28 02:41:12;;;;;;;8.07;3.80;;;9.10;99.90;;;;;;2613993;54;20955;-79
2021/12/28 02:43:40;;;;;;;14.47;4.00;;;9.10;99.90;;;;;;2613799;47;20404;-78
2021/12/28 02:46:07;;;;;;;5.13;3.67;;;9.10;99.90;;;;;;2613572;47;20442;-78
2021/12/28 02:48:34;;;;;;;16.23;5.23;;;9.10;99.90;;;;;;2612946;54;20431;-76
2021/12/28 02:51:07;;;;;;;15.20;3.77;;;9.20;99.90;;;;;;2614433;54;20403;-78
2021/12/28 02:53:32;;;;;;;8.57;3.67;;;9.20;99.90;;;;;;2614565;54;20427;-80
2021/12/28 02:55:58;;;;;;;6.60;3.43;;;9.20;99.90;;;;;;2613812;54;20404;-82
2021/12/28 02:58:27;;;;;;;11.57;5.17;;;9.10;99.90;;;;;;2613596;54;20443;-80
2021/12/28 03:01:13;;;;;;;15.40;4.13;;;9.30;99.90;;;;;;2613637;47;20439;-78
2021/12/28 03:03:40;;;;;;;10.73;3.70;;;9.30;99.90;;;;;;2614033;54;20407;-78
2021/12/28 03:06:08;;;;;;;11.93;5.20;;;9.30;99.90;;;;;;2614562;54;20411;-77
2021/12/28 03:08:39;;;;;;;6.70;3.83;;;9.30;99.90;;;;;;2613320;47;20562;-78
2021/12/28 03:11:08;;;;;;;14.87;3.97;;;9.30;99.90;;;;;;2613637;47;20436;-78
2021/12/28 03:13:40;;;;;;;15.20;4.20;;;9.30;99.90;;;;;;2614227;39;20792;-79
2021/12/28 03:16:07;;;;;;;20.90;4.60;;;9.20;99.90;;;;;;2613930;54;20447;-76
2021/12/28 03:18:34;;;;;;;11.30;4.50;;;9.30;99.90;;;;;;2612648;47;20964;-75
2021/12/28 03:21:00;;;;;;;10.97;4.90;;;9.40;99.90;;;;;;2612376;54;20430;-78
2021/12/28 03:23:27;;;;;;;7.30;3.63;;;9.40;99.90;;;;;;2614988;46;20487;-79
2021/12/28 03:25:54;;;;;;;21.40;5.27;;;9.40;99.90;;;;;;2614514;54;20423;-79
2021/12/28 03:28:23;;;;;;;13.10;4.53;;;9.40;99.90;;;;;;2614270;54;20411;-78
2021/12/28 03:30:52;;;;;;;16.63;4.40;;;9.40;99.90;;;;;;2614944;46;20443;-79
2021/12/28 03:33:19;;;;;;;21.83;4.77;;;9.50;99.90;;;;;;2613661;54;20980;-77
2021/12/28 03:35:47;;;;;;;17.70;5.23;;;9.50;99.90;;;;;;2613697;51;21090;-79
2021/12/28 03:38:13;;;;;;;11.30;3.90;;;9.50;99.90;;;;;;2613641;39;20908;-75
2021/12/28 03:40:39;;;;;;;13.33;4.33;;;9.60;99.90;;;;;;2614684;54;20431;-79
2021/12/28 03:43:05;;;;;;;10.10;5.27;;;9.70;99.90;;;;;;2614289;54;20423;-79
2021/12/28 03:45:32;;;;;;;8.80;4.50;;;9.50;99.90;;;;;;2614591;54;20435;-79
2021/12/28 03:47:58;;;;;;;11.00;4.07;;;9.60;99.90;;;;;;2614445;54;20431;-79
2021/12/28 03:50:25;;;;;;;15.73;5.00;;;9.60;99.90;;;;;;2615053;54;20435;-78
2021/12/28 03:52:55;;;;;;;18.73;5.33;;;9.60;99.90;;;;;;2614533;39;20858;-77
2021/12/28 03:55:23;;;;;;;12.10;4.30;;;9.60;99.90;;;;;;2615025;54;20412;-78
2021/12/28 03:57:50;;;;;;;12.63;4.93;;;9.50;99.90;;;;;;2613916;39;20661;-79
2021/12/28 04:00:19;;;;;;;12.10;3.93;;;9.50;99.90;;;;;;2614761;54;20399;-78
2021/12/28 04:02:45;;;;;;;13.80;4.93;;;9.60;99.90;;;;;;2614721;39;20936;-79
2021/12/28 04:05:12;;;;;;;10.70;4.90;;;9.60;99.90;;;;;;2615306;39;20908;-78
2021/12/28 04:07:39;;;;;;;11.80;4.10;;;9.60;99.90;;;;;;2613889;54;20419;-78
2021/12/28 04:10:09;;;;;;;15.00;4.57;;;9.70;99.90;;;;;;2614770;54;20422;-79
2021/12/28 04:12:35;;;;;;;9.83;3.73;;;9.60;99.90;;;;;;2613943;54;20482;-78
2021/12/28 04:15:01;;;;;;;9.20;4.47;;;9.60;99.90;;;;;;2614956;54;20423;-77
2021/12/28 04:17:28;;;;;;;13.80;4.70;;;9.60;99.90;;;;;;2614003;54;20455;-77
2021/12/28 04:19:55;;;;;;;10.63;4.60;;;9.50;99.90;;;;;;2614078;47;21161;-79
2021/12/28 04:22:21;;;;;;;14.33;4.73;;;9.50;99.90;;;;;;2614001;47;20456;-79
2021/12/28 04:24:48;;;;;;;12.60;4.97;;;9.50;99.90;;;;;;2614714;47;20462;-80
2021/12/28 04:27:13;;;;;;;20.93;3.87;;;9.60;99.90;;;;;;2612824;47;20439;-79
2021/12/28 04:29:39;;;;;;;17.00;4.73;;;9.70;99.90;;;;;;2615029;39;20816;-79
2021/12/28 04:32:06;;;;;;;10.93;4.13;;;9.80;99.90;;;;;;2613724;54;20424;-79
2021/12/28 04:34:32;;;;;;;12.70;3.90;;;9.80;99.90;;;;;;2614318;54;20968;-79
2021/12/28 04:36:58;;;;;;;19.10;5.10;;;9.70;99.90;;;;;;2615066;54;20420;-77
2021/12/28 04:39:24;;;;;;;17.23;5.67;;;9.70;99.90;;;;;;2612986;54;20408;-78
2021/12/28 04:41:51;;;;;;;14.97;4.57;;;9.70;99.90;;;;;;2614515;54;20402;-79
2021/12/28 04:44:23;;;;;;;10.43;4.20;;;9.70;99.90;;;;;;2613752;54;20217;-79
2021/12/28 04:46:50;;;;;;;14.93;4.07;;;9.70;99.90;;;;;;2614516;54;20487;-77
2021/12/28 04:49:17;;;;;;;14.00;4.50;;;9.60;99.90;;;;;;2613823;54;20515;-77
2021/12/28 04:51:43;;;;;;;17.57;4.83;;;9.50;99.90;;;;;;2614800;54;21011;-77
2021/12/28 04:54:12;;;;;;;12.97;5.40;;;9.60;99.90;;;;;;2615534;54;20408;-79
2021/12/28 04:56:39;;;;;;;13.53;4.40;;;9.50;99.90;;;;;;2613998;54;20398;-76
2021/12/28 04:59:06;;;;;;;10.20;5.10;;;9.50;99.90;;;;;;2614431;54;20415;-79
2021/12/28 05:01:31;;;;;;;13.23;5.03;;;9.40;99.90;;;;;;2614185;54;20513;-78
2021/12/28 05:03:57;;;;;;;13.77;4.80;;;9.50;99.90;;;;;;2614790;39;21130;-78
2021/12/28 05:06:23;;;;;;;26.00;4.77;;;9.50;99.90;;;;;;2614337;47;20562;-75
2021/12/28 05:08:49;;;;;;;9.93;5.70;;;9.50;99.90;;;;;;2614109;54;20165;-79
2021/12/28 05:11:15;;;;;;;8.40;3.67;;;9.50;99.90;;;;;;2614466;54;20179;-79
2021/12/28 05:13:41;;;;;;;8.43;3.50;;;9.40;99.90;;;;;;2614435;54;20148;-79
2021/12/28 05:16:07;;;;;;;17.43;5.40;;;9.40;99.90;;;;;;2612481;54;20159;-79
2021/12/28 05:18:33;;;;;;;12.63;4.00;;;9.40;99.90;;;;;;2613863;54;21609;-78
2021/12/28 05:20:59;;;;;;;13.23;3.93;;;9.40;99.90;;;;;;2614914;39;20834;-79
2021/12/28 05:23:25;;;;;;;21.77;4.23;;;9.60;99.90;;;;;;2614204;47;20242;-78
2021/12/28 05:25:50;;;;;;;9.60;4.67;;;9.70;99.90;;;;;;2614645;47;20431;-80
2021/12/28 05:28:16;;;;;;;13.17;3.70;;;9.80;99.90;;;;;;2613726;39;21053;-78
2021/12/28 05:30:42;;;;;;;15.47;4.37;;;9.90;99.90;;;;;;2614357;54;20755;-78
2021/12/28 05:33:08;;;;;;;18.23;4.87;;;9.80;99.90;;;;;;2613166;54;20438;-76
2021/12/28 05:35:34;;;;;;;11.93;4.40;;;9.80;99.90;;;;;;2614839;54;20182;-78
2021/12/28 05:38:00;;;;;;;10.90;4.43;;;9.70;99.90;;;;;;2614177;54;20202;-78
2021/12/28 05:40:26;;;;;;;14.30;4.87;;;9.60;99.90;;;;;;2614110;50;20246;-77
2021/12/28 05:42:51;;;;;;;15.63;3.67;;;9.50;99.90;;;;;;2614238;54;20193;-77
2021/12/28 05:45:17;;;;;;;12.73;3.90;;;9.40;99.90;;;;;;2614581;54;20420;-77
2021/12/28 05:47:43;;;;;;;14.67;4.10;;;9.40;99.90;;;;;;2612407;39;20562;-79
2021/12/28 05:50:10;;;;;;;5.80;3.43;;;9.40;99.90;;;;;;2613371;54;20174;-77
2021/12/28 05:52:36;;;;;;;9.97;4.53;;;9.50;99.90;;;;;;2612793;54;20182;-78
2021/12/28 05:55:02;;;;;;;4.53;3.03;;;9.40;99.90;;;;;;2613729;49;20428;-78
2021/12/28 05:57:30;;;;;;;14.33;4.80;;;9.40;99.90;;;;;;2611644;54;20403;-79
2021/12/28 05:59:56;;;;;;;12.20;3.57;;;9.50;99.90;;;;;;2613404;51;20415;-76
2021/12/28 06:02:22;;;;;;;6.90;3.57;;;9.50;99.90;;;;;;2612218;54;20423;-76
2021/12/28 06:04:48;;;;;;;8.63;3.47;;;9.50;99.90;;;;;;2614036;47;20443;-79
2021/12/28 06:07:13;;;;;;;10.73;4.80;;;9.60;99.90;;;;;;2614325;54;20439;-78
2021/12/28 06:09:39;;;;;;;8.53;3.70;;;9.70;99.90;;;;;;2613499;54;20228;-78
2021/12/28 06:12:06;;;;;;;12.03;4.80;;;9.70;99.90;;;;;;2614580;54;20174;-80
2021/12/28 06:14:33;;;;;;;9.00;4.27;;;9.60;99.90;;;;;;2614854;39;20786;-80
2021/12/28 06:17:00;;;;;;;16.53;4.63;;;9.50;99.90;;;;;;2613705;47;20432;-78
2021/12/28 06:19:26;;;;;;;8.73;4.73;;;9.50;99.90;;;;;;2613417;54;20402;-78
2021/12/28 06:21:52;;;;;;;14.93;4.40;;;9.70;99.90;;;;;;2614551;54;20403;-76
2021/12/28 06:24:17;;;;;;;5.80;3.57;;;9.70;99.90;;;;;;2614623;54;20158;-79
2021/12/28 06:26:44;;;;;;;7.40;5.00;;;9.90;99.90;;;;;;2614750;54;20783;-79
2021/12/28 06:29:11;;;;;;;6.37;3.57;;;9.90;99.90;;;;;;2614303;54;20178;-80
2021/12/28 06:31:37;;;;;;;8.83;4.03;;;9.80;99.90;;;;;;2613736;54;20410;-79
2021/12/28 06:34:04;;;;;;;9.90;4.93;;;9.90;99.90;;;;;;2613715;54;20431;-79
2021/12/28 06:36:31;;;;;;;7.27;4.07;;;10.00;99.90;;;;;;2614297;47;20427;-78
2021/12/28 06:38:58;;;;;;;8.00;4.20;;;10.00;99.90;;;;;;2614083;54;20424;-78
2021/12/28 06:41:24;;;;;;;8.90;3.80;;;10.00;99.90;;;;;;2613393;54;20403;-79
2021/12/28 06:43:50;;;;;;;13.97;4.37;;;10.00;99.90;;;;;;2613125;54;20407;-79
2021/12/28 06:46:16;;;;;;;11.50;4.00;;;10.10;99.90;;;;;;2614276;54;20503;-79
2021/12/28 06:48:42;;;;;;;7.77;3.73;;;10.00;99.90;;;;;;2613480;47;20441;-79
2021/12/28 06:51:08;;;;;;;8.10;3.43;;;10.00;99.90;;;;;;2612836;54;20155;-77
2021/12/28 06:53:35;;;;;;;8.03;4.00;;;9.90;99.90;;;;;;2615509;54;20401;-78
2021/12/28 06:56:03;;;;;;;6.53;4.23;;;9.80;99.90;;;;;;2614742;54;20427;-78
2021/12/28 06:58:29;;;;;;;7.47;3.50;;;9.80;99.90;;;;;;2614575;47;20435;-78
2021/12/28 07:00:55;;;;;;;4.33;3.40;;;9.70;99.90;;;;;;2614277;54;20414;-78
2021/12/28 07:03:21;;;;;;;10.40;3.23;;;9.60;99.90;;;;;;2614577;39;20823;-81
2021/12/28 07:05:47;;;;;;;4.90;3.50;;;9.60;99.90;;;;;;2615093;47;20537;-77
2021/12/28 07:08:14;;;;;;;5.27;3.23;;;9.60;99.90;;;;;;2611790;54;20158;-79
2021/12/28 07:10:42;;;;;;;6.97;3.00;;;9.60;99.90;;;;;;2612846;54;20173;-77
2021/12/28 07:13:10;;;;;;;7.87;3.73;;;9.50;99.90;;;;;;2612182;54;21586;-78
2021/12/28 07:15:36;;;;;;;8.00;4.00;;;9.50;99.90;;;;;;2614254;54;20431;-79
2021/12/28 07:18:02;;;;;;;7.43;2.80;;;9.50;99.90;;;;;;2614455;39;21120;-78
2021/12/28 07:20:28;;;;;;;9.47;3.90;;;9.50;99.90;;;;;;2614783;47;20532;-79
2021/12/28 07:22:54;;;;;;;3.07;2.80;;;9.50;99.90;;;;;;2614007;54;20451;-77
2021/12/28 07:25:24;;;;;;;5.13;2.90;;;9.50;99.90;;;;;;2613209;54;20419;-78
2021/12/28 07:27:50;;;;;;;5.07;2.80;;;9.50;99.90;;;;;;2614234;54;20189;-78
2021/12/28 07:30:17;;;;;;;5.47;4.87;;;9.60;99.90;;;;;;2614403;54;20452;-78
2021/12/28 07:32:42;;;;;;;6.90;3.40;;;9.50;99.90;;;;;;2613373;54;21829;-78
2021/12/28 07:35:10;;;;;;;5.27;2.70;;;9.60;99.90;;;;;;2613812;47;20431;-76
2021/12/28 07:37:36;;;;;;;5.30;2.97;;;9.50;99.90;;;;;;2612340;39;20831;-79
2021/12/28 07:40:05;;;;;;;6.70;3.10;;;9.70;99.90;;;;;;2614630;47;20519;-78
2021/12/28 07:42:31;;;;;;;5.00;2.93;;;9.70;99.90;;;;;;2614200;54;20215;-77
2021/12/28 07:44:59;;;;;;;5.50;3.00;;;9.70;99.90;;;;;;2615219;54;20958;-78
2021/12/28 07:47:25;;;;;;;7.10;3.30;;;9.80;99.90;;;;;;2615431;54;20803;-79
2021/12/28 07:49:51;;;;;;;7.03;2.40;;;9.70;99.90;;;;;;2616868;54;20467;-76
2021/12/28 07:52:16;;;;;;;12.20;3.23;;;9.70;99.90;;;;;;2615587;46;20419;-79
2021/12/28 07:54:42;;;;;;;6.97;3.07;;;9.70;99.90;;;;;;2616996;47;20174;-78
2021/12/28 07:57:08;;;;;;;3.23;2.93;;;9.70;99.90;;;;;;2616238;54;20473;-78
2021/12/28 07:59:34;;;;;;;6.40;3.10;;;9.80;99.90;;;;;;2614402;54;20424;-77
2021/12/28 08:02:00;;;;;;;7.47;3.17;;;9.70;99.90;;;;;;2613257;39;20866;-78
2021/12/28 08:04:27;;;;;;;8.93;2.53;;;9.70;99.90;;;;;;2613249;54;20418;-78
2021/12/28 08:06:55;;;;;;;3.90;2.90;;;9.60;99.90;;;;;;2614050;47;20167;-80
2021/12/28 08:09:21;;;;;;;3.40;2.70;;;9.60;99.90;;;;;;2612009;54;20415;-79
2021/12/28 08:11:50;;;;;;;3.03;2.53;;;9.60;99.90;;;;;;2613800;39;20911;-79
2021/12/28 08:14:18;;;;;;;6.90;3.07;;;9.60;99.90;;;;;;2613797;54;20416;-79
2021/12/28 08:16:46;;;;;;;3.73;2.87;;;9.60;99.90;;;;;;2612808;54;20427;-81
2021/12/28 08:19:12;;;;;;;3.40;3.10;;;9.60;99.90;;;;;;2612959;54;20430;-78
2021/12/28 08:21:39;;;;;;;4.50;3.00;;;9.60;99.90;;;;;;2614510;47;20424;-76
2021/12/28 08:24:05;;;;;;;3.30;2.33;;;9.60;99.90;;;;;;2612132;47;20967;-78
2021/12/28 08:26:31;;;;;;;4.00;2.70;;;9.60;99.90;;;;;;2613931;54;20450;-78
2021/12/28 08:28:59;;;;;;;8.57;2.80;;;9.70;99.90;;;;;;2613738;46;20415;-77
2021/12/28 08:31:26;;;;;;;6.30;2.53;;;10.00;99.90;;;;;;2613538;54;20444;-76
2021/12/28 08:33:52;;;;;;;3.33;2.67;;;10.10;99.90;;;;;;2611450;54;20174;-76
2021/12/28 08:36:18;;;;;;;3.13;1.90;;;10.30;99.90;;;;;;2612808;54;20426;-77
2021/12/28 08:38:44;;;;;;;4.00;2.77;;;10.50;99.90;;;;;;2614009;54;20425;-79
2021/12/28 08:41:10;;;;;;;8.73;2.50;;;10.40;99.90;;;;;;2614345;54;20245;-79
2021/12/28 08:43:37;;;;;;;2.30;2.10;;;10.40;99.90;;;;;;2614687;47;20438;-78
2021/12/28 08:46:03;;;;;;;2.70;2.17;;;10.10;99.90;;;;;;2614862;47;20531;-78
2021/12/28 08:48:29;;;;;;;3.80;2.40;;;10.20;99.90;;;;;;2615178;54;20995;-78
2021/12/28 08:50:56;;;;;;;3.53;2.10;;;10.20;99.90;;;;;;2615390;54;20411;-78
2021/12/28 08:53:22;;;;;;;4.43;2.53;;;10.30;99.90;;;;;;2615070;54;20423;-79
2021/12/28 08:55:48;;;;;;;2.83;2.30;;;10.50;99.90;;;;;;2615955;54;20427;-78
2021/12/28 08:58:15;;;;;;;4.07;2.73;;;10.50;99.90;;;;;;2614561;54;20489;-75
2021/12/28 09:00:41;;;;;;;4.13;2.50;;;10.60;99.90;;;;;;2614779;54;20443;-79
2021/12/28 09:03:08;;;;;;;3.50;2.50;;;10.60;99.90;;;;;;2615846;54;20443;-78
2021/12/28 09:05:37;;;;;;;4.90;2.10;;;10.80;99.90;;;;;;2614852;54;20418;-77
2021/12/28 09:08:06;;;;;;;4.50;1.97;;;10.70;99.90;;;;;;2615244;54;20499;-79
2021/12/28 09:10:32;;;;;;;2.00;1.80;;;10.80;99.90;;;;;;2615573;54;20392;-78
2021/12/28 09:12:58;;;;;;;2.50;2.30;;;10.90;99.90;;;;;;2615410;54;20429;-79
2021/12/28 09:15:24;;;;;;;2.47;2.27;;;10.90;99.90;;;;;;2614810;54;20411;-79
2021/12/28 09:17:50;;;;;;;2.57;2.03;;;10.80;99.90;;;;;;2613838;47;21019;-79
2021/12/28 09:20:19;;;;;;;4.67;2.07;;;10.80;99.90;;;;;;2613497;46;20423;-78
2021/12/28 09:22:45;;;;;;;4.80;2.17;;;10.70;99.90;;;;;;2615277;54;20559;-79
2021/12/28 09:25:11;;;;;;;2.97;2.13;;;11.10;99.90;;;;;;2615448;54;20434;-80
2021/12/28 09:27:41;;;;;;;2.00;1.90;;;11.00;99.90;;;;;;2614366;54;20461;-77
2021/12/28 09:30:08;;;;;;;2.50;2.30;;;10.90;99.90;;;;;;2614836;54;20443;-79
2021/12/28 09:32:35;;;;;;;2.70;2.50;;;10.80;99.90;;;;;;2615349;54;20436;-79
2021/12/28 09:35:01;;;;;;;2.10;1.90;;;10.80;99.90;;;;;;2614126;51;20491;-78
2021/12/28 09:37:27;;;;;;;2.20;1.77;;;11.00;99.90;;;;;;2614779;54;20462;-80
2021/12/28 09:39:54;;;;;;;3.60;2.27;;;11.20;99.90;;;;;;2614601;47;20432;-79
2021/12/28 09:42:19;;;;;;;2.20;2.10;;;11.30;99.90;;;;;;2614458;47;20205;-80
2021/12/28 09:44:51;;;;;;;1.97;1.77;;;11.40;99.90;;;;;;2613137;54;20406;-78
2021/12/28 09:47:21;;;;;;;4.40;2.10;;;11.20;99.90;;;;;;2612850;54;20147;-79
2021/12/28 09:49:51;;;;;;;2.90;1.60;;;11.20;99.90;;;;;;2613843;54;20963;-79
2021/12/28 09:52:19;;;;;;;2.57;2.37;;;11.20;99.90;;;;;;2613577;54;21153;-79
2021/12/28 09:54:46;;;;;;;3.50;2.30;;;11.50;99.90;;;;;;2611640;47;20427;-81
2021/12/28 09:57:17;;;;;;;2.40;2.03;;;11.70;99.90;;;;;;2613598;54;20423;-78
2021/12/28 09:59:45;;;;;;;2.23;2.03;;;11.40;99.90;;;;;;2614627;54;20477;-79
2021/12/28 10:02:11;;;;;;;5.03;2.17;;;11.40;99.90;;;;;;2613584;51;20439;-80
2021/12/28 10:04:56;;;;;;;2.70;2.20;;;11.40;99.90;;;;;;2614356;47;20432;-78
2021/12/28 10:07:27;;;;;;;2.70;2.07;;;11.70;99.90;;;;;;2612703;47;20446;-78
2021/12/28 10:09:55;;;;;;;2.30;1.93;;;11.80;99.90;;;;;;2614332;54;20412;-78
2021/12/28 10:12:39;;;;;;;2.27;2.07;;;12.00;99.90;;;;;;2612286;51;20427;-78
2021/12/28 10:15:12;;;;;;;2.10;2.00;;;12.10;99.90;;;;;;2614245;54;20956;-78
2021/12/28 10:17:41;;;;;;;1.90;1.80;;;11.80;99.90;;;;;;2613485;47;20438;-78
2021/12/28 10:20:11;;;;;;;2.33;2.17;;;11.30;99.90;;;;;;2613957;54;20430;-79
2021/12/28 10:22:46;;;;;;;2.23;2.00;;;10.80;99.90;;;;;;2612870;54;20495;-78
2021/12/28 10:25:18;;;;;;;2.50;2.30;;;10.90;99.90;;;;;;2612955;47;20838;-78
2021/12/28 10:27:47;;;;;;;2.60;2.50;;;10.80;99.90;;;;;;2612558;47;20413;-78
2021/12/28 10:30:17;;;;;;;2.20;2.10;;;10.80;99.90;;;;;;2613268;54;20394;-79
2021/12/28 10:32:45;;;;;;;2.70;1.97;;;10.50;99.90;;;;;;2613601;54;20446;-78
2021/12/28 10:35:17;;;;;;;2.70;2.50;;;10.40;99.90;;;;;;2612968;54;20438;-80
2021/12/28 10:37:57;;;;;;;2.53;2.33;;;10.40;99.90;;;;;;2613049;47;20454;-79
2021/12/28 10:40:41;;;;;;;2.53;2.43;;;10.40;99.90;;;;;;2613172;54;20427;-77
2021/12/28 10:43:16;;;;;;;3.97;2.73;;;10.40;99.90;;;;;;2613510;39;20855;-78
2021/12/28 10:45:48;;;;;;;3.90;2.43;;;10.20;99.90;;;;;;2613893;47;20432;-77
2021/12/28 10:48:23;;;;;;;2.30;2.20;;;10.30;99.90;;;;;;2613332;47;20442;-78
2021/12/28 10:51:05;;;;;;;2.20;2.10;;;10.30;99.90;;;;;;2614340;54;20959;-80
2021/12/28 10:56:53;;;;;;;1.97;1.87;;;10.30;99.90;;;;;;2611632;47;20445;-79
2021/12/28 10:59:30;;;;;;;2.57;2.37;;;10.30;99.90;;;;;;2614970;54;20427;-79
2021/12/28 11:01:56;;;;;;;2.67;2.47;;;10.50;99.90;;;;;;2612460;47;20431;-80
2021/12/28 11:04:36;;;;;;;2.80;2.70;;;10.40;99.90;;;;;;2613979;54;20427;-77
2021/12/28 11:07:19;;;;;;;2.60;2.40;;;10.30;99.90;;;;;;2613063;54;20422;-79
2021/12/28 11:09:47;;;;;;;3.03;2.40;;;10.50;99.90;;;;;;2614022;54;20418;-79
2021/12/28 11:12:13;;;;;;;2.70;2.50;;;10.60;99.90;;;;;;2613847;39;20496;-78
2021/12/28 11:14:42;;;;;;;2.63;2.30;;;10.40;99.90;;;;;;2612823;54;20439;-77
2021/12/28 11:17:09;;;;;;;2.70;2.47;;;10.40;99.90;;;;;;2613159;47;20431;-75
2021/12/28 11:19:38;;;;;;;2.23;2.13;;;10.40;99.90;;;;;;2613972;54;20471;-79
2021/12/28 11:22:11;;;;;;;2.20;2.10;;;10.50;99.90;;;;;;2608328;54;20471;-76
2021/12/28 11:24:43;;;;;;;2.50;2.30;;;10.40;99.90;;;;;;2612430;54;20468;-77
2021/12/28 11:27:24;;;;;;;2.50;2.40;;;10.40;99.90;;;;;;2614104;39;20781;-76
2021/12/28 11:29:51;;;;;;;2.10;2.00;;;10.40;99.90;;;;;;2613889;54;20408;-77
2021/12/28 11:32:19;;;;;;;2.10;2.00;;;10.40;99.90;;;;;;2613750;47;20438;-78
2021/12/28 11:34:46;;;;;;;2.00;1.90;;;10.40;99.90;;;;;;2613355;54;20610;-79
2021/12/28 11:37:20;;;;;;;2.33;2.23;;;10.40;99.90;;;;;;2614101;39;21250;-78
2021/12/28 11:39:56;;;;;;;3.30;2.60;;;10.50;99.90;;;;;;2614216;54;20450;-78
2021/12/28 11:42:23;;;;;;;2.23;2.13;;;10.70;99.90;;;;;;2614667;46;20511;-78
2021/12/28 11:44:53;;;;;;;2.60;2.30;;;10.80;99.90;;;;;;2615569;54;20979;-80
2021/12/28 11:47:22;;;;;;;2.70;2.50;;;10.80;99.90;;;;;;2614934;54;20499;-78
2021/12/28 11:49:56;;;;;;;2.53;2.43;;;10.80;99.90;;;;;;2614653;39;20813;-80
2021/12/28 11:52:22;;;;;;;3.13;2.90;;;10.70;99.90;;;;;;2614034;47;20428;-75
2021/12/28 11:54:50;;;;;;;2.70;2.50;;;10.50;99.90;;;;;;2614903;47;20462;-77
2021/12/28 11:57:20;;;;;;;2.30;2.20;;;10.50;99.90;;;;;;2614596;47;20419;-77
2021/12/28 12:00:11;;;;;;;2.23;2.13;;;10.60;99.90;;;;;;2614619;47;20432;-77
2021/12/28 12:02:47;;;;;;;2.27;2.17;;;10.60;99.90;;;;;;2614253;47;20439;-77
2021/12/28 12:05:24;;;;;;;3.30;2.27;;;10.60;99.90;;;;;;2615056;47;20435;-76
2021/12/28 12:08:14;;;;;;;2.90;2.33;;;10.60;99.90;;;;;;2614335;39;20864;-77
2021/12/28 12:10:46;;;;;;;2.20;2.10;;;10.60;99.90;;;;;;2614453;54;20430;-78
2021/12/28 12:13:16;;;;;;;2.83;2.37;;;10.60;99.90;;;;;;2614677;54;20432;-76
2021/12/28 12:15:49;;;;;;;1.90;1.80;;;10.70;99.90;;;;;;2614225;54;20404;-78
2021/12/28 12:18:18;;;;;;;1.30;1.20;;;10.60;99.90;;;;;;2614862;54;20450;-77
2021/12/28 12:20:50;;;;;;;1.80;1.70;;;10.60;99.90;;;;;;2614351;47;20428;-79
2021/12/28 12:23:22;;;;;;;2.10;1.63;;;10.60;99.90;;;;;;2613701;54;20475;-78
2021/12/28 12:25:55;;;;;;;6.03;2.10;;;10.50;99.90;;;;;;2615511;54;20491;-79
2021/12/28 12:28:36;;;;;;;2.30;1.60;;;10.50;99.90;;;;;;2614526;54;20428;-78
2021/12/28 12:31:09;;;;;;;2.87;1.70;;;10.40;99.90;;;;;;2614017;54;20419;-78
2021/12/28 12:33:42;;;;;;;2.90;2.20;;;10.30;99.90;;;;;;2610984;54;20398;-79
2021/12/28 12:36:17;;;;;;;5.30;1.50;;;10.40;99.90;;;;;;2612572;54;20474;-76
2021/12/28 12:38:44;;;;;;;1.50;1.40;;;10.40;99.90;;;;;;2613638;54;20448;-78
2021/12/28 12:41:16;;;;;;;1.53;1.43;;;10.40;99.90;;;;;;2613866;54;20977;-79
2021/12/28 12:43:51;;;;;;;1.53;1.40;;;10.30;99.90;;;;;;2615254;54;20471;-77
2021/12/28 12:46:32;;;;;;;2.27;1.70;;;10.40;99.90;;;;;;2614303;47;20971;-78
2021/12/28 12:49:02;;;;;;;1.37;1.20;;;10.30;99.90;;;;;;2614927;54;20403;-78
2021/12/28 12:51:34;;;;;;;2.47;1.70;;;10.20;99.90;;;;;;2614351;54;21089;-78
2021/12/28 12:54:19;;;;;;;2.03;1.70;;;10.20;99.90;;;;;;2613665;54;20492;-78
2021/12/28 12:56:51;;;;;;;1.80;1.63;;;10.30;99.90;;;;;;2612792;54;20423;-77
2021/12/28 12:59:26;;;;;;;2.10;1.90;;;10.30;99.90;;;;;;2612929;54;20462;-78
2021/12/28 13:01:51;;;;;;;3.03;1.83;;;10.30;99.90;;;;;;2610170;54;20430;-77